sensor_id;sensor_type;location;lat;lon;timestamp;P1;durP1;ratioP1;P2;durP2;ratioP2
4674;SDS011;2351;50.812;12.872;2022-08-19T00:01:42;32.40;;;20.17;;
4674;SDS011;2351;50.812;12.872;2022-08-19T00:04:15;41.17;;;21.27;;
4674;SDS011;2351;50.812;12.872;2022-08-19T00:06:48;42.07;;;21.30;;
4674;SDS011;2351;50.812;12.872;2022-08-19T00:09:20;38.37;;;20.67;;
4674;SDS011;2351;50.812;12.872;2022-08-19T00:11:55;38.10;;;20.43;;
4674;SDS011;2351;50.812;12.872;2022-08-19T00:14:28;35.63;;;20.43;;
4674;SDS011;2351;50.812;12.872;2022-08-19T00:17:01;33.03;;;19.33;;
4674;SDS011;2351;50.812;12.872;2022-08-19T00:19:34;33.20;;;18.20;;
4674;SDS011;2351;50.812;12.872;2022-08-19T00:22:06;30.13;;;18.23;;
4674;SDS011;2351;50.812;12.872;2022-08-19T00:24:38;33.87;;;19.10;;
4674;SDS011;2351;50.812;12.872;2022-08-19T00:27:12;29.80;;;17.97;;
4674;SDS011;2351;50.812;12.872;2022-08-19T00:29:44;35.83;;;19.07;;
4674;SDS011;2351;50.812;12.872;2022-08-19T00:32:16;33.30;;;18.80;;
4674;SDS011;2351;50.812;12.872;2022-08-19T00:34:48;32.40;;;19.00;;
4674;SDS011;2351;50.812;12.872;2022-08-19T00:37:20;39.20;;;20.00;;
4674;SDS011;2351;50.812;12.872;2022-08-19T00:39:53;37.70;;;20.30;;
4674;SDS011;2351;50.812;12.872;2022-08-19T00:42:27;34.43;;;19.47;;
4674;SDS011;2351;50.812;12.872;2022-08-19T00:44:59;32.90;;;18.70;;
4674;SDS011;2351;50.812;12.872;2022-08-19T00:47:31;34.13;;;20.00;;
4674;SDS011;2351;50.812;12.872;2022-08-19T00:50:02;35.53;;;18.13;;
4674;SDS011;2351;50.812;12.872;2022-08-19T00:52:36;29.23;;;17.53;;
4674;SDS011;2351;50.812;12.872;2022-08-19T00:55:13;32.73;;;20.90;;
4674;SDS011;2351;50.812;12.872;2022-08-19T00:57:51;30.20;;;18.53;;
4674;SDS011;2351;50.812;12.872;2022-08-19T01:00:26;34.20;;;19.60;;
4674;SDS011;2351;50.812;12.872;2022-08-19T01:02:58;31.37;;;18.07;;
4674;SDS011;2351;50.812;12.872;2022-08-19T01:05:30;38.50;;;20.03;;
4674;SDS011;2351;50.812;12.872;2022-08-19T01:08:03;33.13;;;19.00;;
4674;SDS011;2351;50.812;12.872;2022-08-19T01:10:37;39.10;;;17.37;;
4674;SDS011;2351;50.812;12.872;2022-08-19T01:13:15;32.73;;;19.33;;
4674;SDS011;2351;50.812;12.872;2022-08-19T01:15:49;34.00;;;19.43;;
4674;SDS011;2351;50.812;12.872;2022-08-19T01:18:23;33.77;;;19.50;;
4674;SDS011;2351;50.812;12.872;2022-08-19T01:20:56;33.93;;;19.40;;
4674;SDS011;2351;50.812;12.872;2022-08-19T01:23:31;34.37;;;19.03;;
4674;SDS011;2351;50.812;12.872;2022-08-19T01:26:14;31.00;;;17.60;;
4674;SDS011;2351;50.812;12.872;2022-08-19T01:28:47;36.03;;;20.67;;
4674;SDS011;2351;50.812;12.872;2022-08-19T01:31:22;33.90;;;19.73;;
4674;SDS011;2351;50.812;12.872;2022-08-19T01:33:56;35.03;;;20.03;;
4674;SDS011;2351;50.812;12.872;2022-08-19T01:36:28;32.20;;;20.13;;
4674;SDS011;2351;50.812;12.872;2022-08-19T01:39:04;32.17;;;18.50;;
4674;SDS011;2351;50.812;12.872;2022-08-19T01:41:38;29.07;;;16.93;;
4674;SDS011;2351;50.812;12.872;2022-08-19T01:44:10;32.43;;;19.30;;
4674;SDS011;2351;50.812;12.872;2022-08-19T01:46:42;30.97;;;18.33;;
4674;SDS011;2351;50.812;12.872;2022-08-19T01:49:15;31.30;;;18.37;;
4674;SDS011;2351;50.812;12.872;2022-08-19T01:51:48;36.23;;;18.23;;
4674;SDS011;2351;50.812;12.872;2022-08-19T01:54:22;28.57;;;17.23;;
4674;SDS011;2351;50.812;12.872;2022-08-19T01:56:56;30.40;;;18.00;;
4674;SDS011;2351;50.812;12.872;2022-08-19T01:59:30;26.93;;;17.10;;
4674;SDS011;2351;50.812;12.872;2022-08-19T02:02:03;29.30;;;16.10;;
4674;SDS011;2351;50.812;12.872;2022-08-19T02:04:37;28.60;;;16.73;;
4674;SDS011;2351;50.812;12.872;2022-08-19T02:07:09;32.07;;;18.33;;
4674;SDS011;2351;50.812;12.872;2022-08-19T02:09:42;28.97;;;18.57;;
4674;SDS011;2351;50.812;12.872;2022-08-19T02:12:13;30.90;;;18.37;;
4674;SDS011;2351;50.812;12.872;2022-08-19T02:14:46;34.20;;;19.60;;
4674;SDS011;2351;50.812;12.872;2022-08-19T02:17:18;34.37;;;16.87;;
4674;SDS011;2351;50.812;12.872;2022-08-19T02:19:50;29.07;;;17.00;;
4674;SDS011;2351;50.812;12.872;2022-08-19T02:22:22;30.43;;;16.97;;
4674;SDS011;2351;50.812;12.872;2022-08-19T02:24:56;28.70;;;18.07;;
4674;SDS011;2351;50.812;12.872;2022-08-19T02:27:28;26.83;;;16.70;;
4674;SDS011;2351;50.812;12.872;2022-08-19T02:30:00;29.40;;;18.23;;
4674;SDS011;2351;50.812;12.872;2022-08-19T02:32:32;33.57;;;18.77;;
4674;SDS011;2351;50.812;12.872;2022-08-19T02:35:04;29.23;;;16.70;;
4674;SDS011;2351;50.812;12.872;2022-08-19T02:37:36;28.53;;;17.53;;
4674;SDS011;2351;50.812;12.872;2022-08-19T02:40:27;30.90;;;17.77;;
4674;SDS011;2351;50.812;12.872;2022-08-19T02:42:58;33.97;;;17.40;;
4674;SDS011;2351;50.812;12.872;2022-08-19T02:45:31;36.63;;;20.30;;
4674;SDS011;2351;50.812;12.872;2022-08-19T02:48:03;31.40;;;17.73;;
4674;SDS011;2351;50.812;12.872;2022-08-19T02:50:36;26.00;;;16.13;;
4674;SDS011;2351;50.812;12.872;2022-08-19T02:53:08;31.20;;;17.47;;
4674;SDS011;2351;50.812;12.872;2022-08-19T02:55:45;31.03;;;18.40;;
4674;SDS011;2351;50.812;12.872;2022-08-19T02:58:18;29.00;;;15.93;;
4674;SDS011;2351;50.812;12.872;2022-08-19T03:00:52;30.73;;;16.60;;
4674;SDS011;2351;50.812;12.872;2022-08-19T03:03:25;28.53;;;17.60;;
4674;SDS011;2351;50.812;12.872;2022-08-19T03:06:03;32.30;;;18.40;;
4674;SDS011;2351;50.812;12.872;2022-08-19T03:08:36;32.73;;;17.10;;
4674;SDS011;2351;50.812;12.872;2022-08-19T03:11:13;29.33;;;17.00;;
4674;SDS011;2351;50.812;12.872;2022-08-19T03:13:46;29.37;;;16.73;;
4674;SDS011;2351;50.812;12.872;2022-08-19T03:16:21;29.57;;;18.17;;
4674;SDS011;2351;50.812;12.872;2022-08-19T03:18:55;33.37;;;19.13;;
4674;SDS011;2351;50.812;12.872;2022-08-19T03:21:31;35.10;;;18.77;;
4674;SDS011;2351;50.812;12.872;2022-08-19T03:24:05;37.20;;;20.30;;
4674;SDS011;2351;50.812;12.872;2022-08-19T03:26:42;30.83;;;18.13;;
4674;SDS011;2351;50.812;12.872;2022-08-19T03:29:15;36.20;;;19.93;;
4674;SDS011;2351;50.812;12.872;2022-08-19T03:31:48;38.37;;;21.07;;
4674;SDS011;2351;50.812;12.872;2022-08-19T03:34:22;38.60;;;19.70;;
4674;SDS011;2351;50.812;12.872;2022-08-19T03:36:57;42.73;;;21.83;;
4674;SDS011;2351;50.812;12.872;2022-08-19T03:39:30;36.53;;;19.50;;
4674;SDS011;2351;50.812;12.872;2022-08-19T03:42:03;42.20;;;23.17;;
4674;SDS011;2351;50.812;12.872;2022-08-19T03:44:35;43.03;;;21.23;;
4674;SDS011;2351;50.812;12.872;2022-08-19T03:47:07;42.93;;;22.13;;
4674;SDS011;2351;50.812;12.872;2022-08-19T03:49:39;48.17;;;21.27;;
4674;SDS011;2351;50.812;12.872;2022-08-19T03:52:10;45.87;;;21.03;;
4674;SDS011;2351;50.812;12.872;2022-08-19T03:54:42;48.07;;;22.27;;
4674;SDS011;2351;50.812;12.872;2022-08-19T03:57:15;48.90;;;24.00;;
4674;SDS011;2351;50.812;12.872;2022-08-19T03:59:46;48.07;;;23.23;;
4674;SDS011;2351;50.812;12.872;2022-08-19T04:02:18;56.20;;;23.27;;
4674;SDS011;2351;50.812;12.872;2022-08-19T04:04:50;51.00;;;24.13;;
4674;SDS011;2351;50.812;12.872;2022-08-19T04:07:25;49.70;;;25.00;;
4674;SDS011;2351;50.812;12.872;2022-08-19T04:09:56;51.33;;;23.73;;
4674;SDS011;2351;50.812;12.872;2022-08-19T04:12:30;61.30;;;26.50;;
4674;SDS011;2351;50.812;12.872;2022-08-19T04:15:02;50.33;;;24.17;;
4674;SDS011;2351;50.812;12.872;2022-08-19T04:17:34;64.10;;;25.20;;
4674;SDS011;2351;50.812;12.872;2022-08-19T04:20:06;56.33;;;26.30;;
4674;SDS011;2351;50.812;12.872;2022-08-19T04:22:38;55.07;;;26.07;;
4674;SDS011;2351;50.812;12.872;2022-08-19T04:25:10;53.53;;;25.00;;
4674;SDS011;2351;50.812;12.872;2022-08-19T04:27:43;56.07;;;24.03;;
4674;SDS011;2351;50.812;12.872;2022-08-19T04:30:16;61.50;;;25.67;;
4674;SDS011;2351;50.812;12.872;2022-08-19T04:32:49;52.63;;;24.50;;
4674;SDS011;2351;50.812;12.872;2022-08-19T04:35:20;47.90;;;21.70;;
4674;SDS011;2351;50.812;12.872;2022-08-19T04:37:52;51.73;;;22.77;;
4674;SDS011;2351;50.812;12.872;2022-08-19T04:40:25;56.03;;;24.97;;
4674;SDS011;2351;50.812;12.872;2022-08-19T04:43:16;56.33;;;23.57;;
4674;SDS011;2351;50.812;12.872;2022-08-19T04:45:48;51.23;;;22.90;;
4674;SDS011;2351;50.812;12.872;2022-08-19T04:48:20;54.80;;;21.17;;
4674;SDS011;2351;50.812;12.872;2022-08-19T04:50:56;51.00;;;22.27;;
4674;SDS011;2351;50.812;12.872;2022-08-19T04:53:29;51.43;;;22.90;;
4674;SDS011;2351;50.812;12.872;2022-08-19T04:56:04;52.73;;;21.03;;
4674;SDS011;2351;50.812;12.872;2022-08-19T04:58:41;58.87;;;22.00;;
4674;SDS011;2351;50.812;12.872;2022-08-19T05:01:14;56.87;;;20.80;;
4674;SDS011;2351;50.812;12.872;2022-08-19T05:03:49;46.63;;;22.30;;
4674;SDS011;2351;50.812;12.872;2022-08-19T05:06:21;49.47;;;21.80;;
4674;SDS011;2351;50.812;12.872;2022-08-19T05:08:54;49.40;;;20.93;;
4674;SDS011;2351;50.812;12.872;2022-08-19T05:11:27;50.77;;;20.17;;
4674;SDS011;2351;50.812;12.872;2022-08-19T05:14:01;49.73;;;21.03;;
4674;SDS011;2351;50.812;12.872;2022-08-19T05:16:32;43.50;;;20.70;;
4674;SDS011;2351;50.812;12.872;2022-08-19T05:19:04;47.00;;;21.50;;
4674;SDS011;2351;50.812;12.872;2022-08-19T05:21:54;43.30;;;19.67;;
4674;SDS011;2351;50.812;12.872;2022-08-19T05:24:43;43.60;;;17.07;;
4674;SDS011;2351;50.812;12.872;2022-08-19T05:27:15;37.40;;;16.07;;
4674;SDS011;2351;50.812;12.872;2022-08-19T05:29:48;37.10;;;17.27;;
4674;SDS011;2351;50.812;12.872;2022-08-19T05:32:19;28.47;;;17.00;;
4674;SDS011;2351;50.812;12.872;2022-08-19T05:34:51;33.87;;;15.87;;
4674;SDS011;2351;50.812;12.872;2022-08-19T05:37:23;26.67;;;15.73;;
4674;SDS011;2351;50.812;12.872;2022-08-19T05:39:56;27.03;;;15.00;;
4674;SDS011;2351;50.812;12.872;2022-08-19T05:42:28;30.00;;;15.83;;
4674;SDS011;2351;50.812;12.872;2022-08-19T05:45:02;27.13;;;14.87;;
4674;SDS011;2351;50.812;12.872;2022-08-19T05:47:34;29.30;;;15.27;;
4674;SDS011;2351;50.812;12.872;2022-08-19T05:50:07;30.33;;;16.57;;
4674;SDS011;2351;50.812;12.872;2022-08-19T05:52:39;30.67;;;16.83;;
4674;SDS011;2351;50.812;12.872;2022-08-19T05:55:11;31.90;;;15.90;;
4674;SDS011;2351;50.812;12.872;2022-08-19T05:57:43;35.97;;;18.23;;
4674;SDS011;2351;50.812;12.872;2022-08-19T06:00:16;30.90;;;16.77;;
4674;SDS011;2351;50.812;12.872;2022-08-19T06:02:48;36.40;;;17.80;;
4674;SDS011;2351;50.812;12.872;2022-08-19T06:05:20;37.00;;;18.70;;
4674;SDS011;2351;50.812;12.872;2022-08-19T06:07:52;43.77;;;20.47;;
4674;SDS011;2351;50.812;12.872;2022-08-19T06:10:24;38.57;;;19.10;;
4674;SDS011;2351;50.812;12.872;2022-08-19T06:12:57;37.00;;;18.27;;
4674;SDS011;2351;50.812;12.872;2022-08-19T06:15:30;38.43;;;17.23;;
4674;SDS011;2351;50.812;12.872;2022-08-19T06:18:01;38.60;;;19.03;;
4674;SDS011;2351;50.812;12.872;2022-08-19T06:20:33;35.17;;;18.43;;
4674;SDS011;2351;50.812;12.872;2022-08-19T06:23:05;39.13;;;19.33;;
4674;SDS011;2351;50.812;12.872;2022-08-19T06:25:36;35.17;;;18.93;;
4674;SDS011;2351;50.812;12.872;2022-08-19T06:28:10;31.23;;;17.77;;
4674;SDS011;2351;50.812;12.872;2022-08-19T06:30:43;31.80;;;18.20;;
4674;SDS011;2351;50.812;12.872;2022-08-19T06:33:14;36.00;;;18.00;;
4674;SDS011;2351;50.812;12.872;2022-08-19T06:35:46;43.17;;;19.63;;
4674;SDS011;2351;50.812;12.872;2022-08-19T06:38:17;48.90;;;21.10;;
4674;SDS011;2351;50.812;12.872;2022-08-19T06:40:59;44.87;;;22.13;;
4674;SDS011;2351;50.812;12.872;2022-08-19T06:43:31;42.60;;;20.20;;
4674;SDS011;2351;50.812;12.872;2022-08-19T06:46:08;37.27;;;17.87;;
4674;SDS011;2351;50.812;12.872;2022-08-19T06:48:41;41.70;;;19.77;;
4674;SDS011;2351;50.812;12.872;2022-08-19T06:51:13;48.10;;;22.57;;
4674;SDS011;2351;50.812;12.872;2022-08-19T06:53:48;56.30;;;22.27;;
4674;SDS011;2351;50.812;12.872;2022-08-19T06:56:23;49.40;;;21.33;;
4674;SDS011;2351;50.812;12.872;2022-08-19T06:59:01;45.47;;;22.10;;
4674;SDS011;2351;50.812;12.872;2022-08-19T07:01:35;53.13;;;20.90;;
4674;SDS011;2351;50.812;12.872;2022-08-19T07:04:08;45.67;;;20.87;;
4674;SDS011;2351;50.812;12.872;2022-08-19T07:06:41;49.00;;;21.90;;
4674;SDS011;2351;50.812;12.872;2022-08-19T07:09:15;51.93;;;21.70;;
4674;SDS011;2351;50.812;12.872;2022-08-19T07:11:49;44.20;;;20.50;;
4674;SDS011;2351;50.812;12.872;2022-08-19T07:14:24;42.30;;;19.30;;
4674;SDS011;2351;50.812;12.872;2022-08-19T07:16:58;51.30;;;21.57;;
4674;SDS011;2351;50.812;12.872;2022-08-19T07:19:30;38.23;;;19.20;;
4674;SDS011;2351;50.812;12.872;2022-08-19T07:22:03;38.23;;;19.70;;
4674;SDS011;2351;50.812;12.872;2022-08-19T07:24:36;38.63;;;18.97;;
4674;SDS011;2351;50.812;12.872;2022-08-19T07:27:08;36.73;;;17.63;;
4674;SDS011;2351;50.812;12.872;2022-08-19T07:29:40;41.33;;;19.30;;
4674;SDS011;2351;50.812;12.872;2022-08-19T07:32:13;34.37;;;15.60;;
4674;SDS011;2351;50.812;12.872;2022-08-19T07:34:44;31.77;;;16.40;;
4674;SDS011;2351;50.812;12.872;2022-08-19T07:37:16;30.10;;;16.03;;
4674;SDS011;2351;50.812;12.872;2022-08-19T07:39:48;33.30;;;15.13;;
4674;SDS011;2351;50.812;12.872;2022-08-19T07:42:19;30.30;;;17.13;;
4674;SDS011;2351;50.812;12.872;2022-08-19T07:44:51;30.90;;;16.10;;
4674;SDS011;2351;50.812;12.872;2022-08-19T07:47:24;33.27;;;16.27;;
4674;SDS011;2351;50.812;12.872;2022-08-19T07:49:58;37.60;;;18.57;;
4674;SDS011;2351;50.812;12.872;2022-08-19T07:52:29;40.40;;;19.47;;
4674;SDS011;2351;50.812;12.872;2022-08-19T07:55:01;45.87;;;22.50;;
4674;SDS011;2351;50.812;12.872;2022-08-19T07:57:34;46.70;;;20.67;;
4674;SDS011;2351;50.812;12.872;2022-08-19T08:00:06;47.80;;;22.57;;
4674;SDS011;2351;50.812;12.872;2022-08-19T08:02:40;45.57;;;20.43;;
4674;SDS011;2351;50.812;12.872;2022-08-19T08:05:12;44.33;;;21.63;;
4674;SDS011;2351;50.812;12.872;2022-08-19T08:08:01;49.60;;;21.50;;
4674;SDS011;2351;50.812;12.872;2022-08-19T08:10:53;51.23;;;22.57;;
4674;SDS011;2351;50.812;12.872;2022-08-19T08:13:24;45.90;;;21.00;;
4674;SDS011;2351;50.812;12.872;2022-08-19T08:15:57;38.67;;;21.50;;
4674;SDS011;2351;50.812;12.872;2022-08-19T08:18:30;41.73;;;20.80;;
4674;SDS011;2351;50.812;12.872;2022-08-19T08:21:01;38.30;;;21.13;;
4674;SDS011;2351;50.812;12.872;2022-08-19T08:23:33;36.07;;;19.20;;
4674;SDS011;2351;50.812;12.872;2022-08-19T08:26:04;41.70;;;20.40;;
4674;SDS011;2351;50.812;12.872;2022-08-19T08:28:36;40.80;;;21.80;;
4674;SDS011;2351;50.812;12.872;2022-08-19T08:31:07;43.60;;;22.50;;
4674;SDS011;2351;50.812;12.872;2022-08-19T08:33:41;42.30;;;22.00;;
4674;SDS011;2351;50.812;12.872;2022-08-19T08:36:13;42.27;;;21.10;;
4674;SDS011;2351;50.812;12.872;2022-08-19T08:38:45;47.17;;;20.13;;
4674;SDS011;2351;50.812;12.872;2022-08-19T08:41:18;37.17;;;21.60;;
4674;SDS011;2351;50.812;12.872;2022-08-19T08:43:57;44.23;;;22.70;;
4674;SDS011;2351;50.812;12.872;2022-08-19T08:46:30;45.10;;;22.60;;
4674;SDS011;2351;50.812;12.872;2022-08-19T08:49:17;44.43;;;22.17;;
4674;SDS011;2351;50.812;12.872;2022-08-19T08:51:57;43.33;;;23.30;;
4674;SDS011;2351;50.812;12.872;2022-08-19T08:54:35;42.87;;;23.80;;
4674;SDS011;2351;50.812;12.872;2022-08-19T08:57:11;52.03;;;26.03;;
4674;SDS011;2351;50.812;12.872;2022-08-19T08:59:46;44.67;;;24.40;;
4674;SDS011;2351;50.812;12.872;2022-08-19T09:02:21;48.30;;;24.80;;
4674;SDS011;2351;50.812;12.872;2022-08-19T09:04:54;53.47;;;26.60;;
4674;SDS011;2351;50.812;12.872;2022-08-19T09:07:30;60.07;;;26.90;;
4674;SDS011;2351;50.812;12.872;2022-08-19T09:10:16;52.97;;;28.40;;
4674;SDS011;2351;50.812;12.872;2022-08-19T09:12:54;58.60;;;27.27;;
4674;SDS011;2351;50.812;12.872;2022-08-19T09:15:36;61.13;;;29.10;;
4674;SDS011;2351;50.812;12.872;2022-08-19T09:18:11;55.07;;;27.00;;
4674;SDS011;2351;50.812;12.872;2022-08-19T09:20:45;67.50;;;31.80;;
4674;SDS011;2351;50.812;12.872;2022-08-19T09:23:17;63.90;;;29.17;;
4674;SDS011;2351;50.812;12.872;2022-08-19T09:25:54;68.33;;;31.47;;
4674;SDS011;2351;50.812;12.872;2022-08-19T09:28:25;59.67;;;29.90;;
4674;SDS011;2351;50.812;12.872;2022-08-19T09:30:57;66.73;;;30.50;;
4674;SDS011;2351;50.812;12.872;2022-08-19T09:33:29;63.17;;;31.63;;
4674;SDS011;2351;50.812;12.872;2022-08-19T09:36:03;68.77;;;30.50;;
4674;SDS011;2351;50.812;12.872;2022-08-19T09:38:37;68.60;;;32.10;;
4674;SDS011;2351;50.812;12.872;2022-08-19T09:41:12;68.00;;;31.70;;
4674;SDS011;2351;50.812;12.872;2022-08-19T09:43:46;75.87;;;32.40;;
4674;SDS011;2351;50.812;12.872;2022-08-19T09:46:19;61.70;;;31.13;;
4674;SDS011;2351;50.812;12.872;2022-08-19T09:48:52;66.47;;;31.47;;
4674;SDS011;2351;50.812;12.872;2022-08-19T09:51:25;59.17;;;26.77;;
4674;SDS011;2351;50.812;12.872;2022-08-19T09:53:59;52.90;;;26.10;;
4674;SDS011;2351;50.812;12.872;2022-08-19T09:56:32;54.00;;;23.53;;
4674;SDS011;2351;50.812;12.872;2022-08-19T09:59:04;49.10;;;24.50;;
4674;SDS011;2351;50.812;12.872;2022-08-19T10:01:35;55.43;;;24.43;;
4674;SDS011;2351;50.812;12.872;2022-08-19T10:04:07;59.93;;;28.57;;
4674;SDS011;2351;50.812;12.872;2022-08-19T10:06:40;57.60;;;26.40;;
4674;SDS011;2351;50.812;12.872;2022-08-19T10:09:13;62.10;;;28.37;;
4674;SDS011;2351;50.812;12.872;2022-08-19T10:11:45;56.07;;;28.37;;
4674;SDS011;2351;50.812;12.872;2022-08-19T10:14:19;69.07;;;31.40;;
4674;SDS011;2351;50.812;12.872;2022-08-19T10:16:52;76.43;;;33.67;;
4674;SDS011;2351;50.812;12.872;2022-08-19T10:19:24;67.93;;;31.50;;
4674;SDS011;2351;50.812;12.872;2022-08-19T10:21:57;74.90;;;30.20;;
4674;SDS011;2351;50.812;12.872;2022-08-19T10:24:28;67.43;;;30.50;;
4674;SDS011;2351;50.812;12.872;2022-08-19T10:27:00;61.47;;;30.07;;
4674;SDS011;2351;50.812;12.872;2022-08-19T10:29:33;73.30;;;30.07;;
4674;SDS011;2351;50.812;12.872;2022-08-19T10:32:05;69.73;;;32.50;;
4674;SDS011;2351;50.812;12.872;2022-08-19T10:34:39;77.90;;;34.47;;
4674;SDS011;2351;50.812;12.872;2022-08-19T10:37:12;80.73;;;34.40;;
4674;SDS011;2351;50.812;12.872;2022-08-19T10:39:43;72.30;;;34.27;;
4674;SDS011;2351;50.812;12.872;2022-08-19T10:42:17;83.30;;;34.50;;
4674;SDS011;2351;50.812;12.872;2022-08-19T10:44:49;60.47;;;30.30;;
4674;SDS011;2351;50.812;12.872;2022-08-19T10:47:21;60.87;;;30.10;;
4674;SDS011;2351;50.812;12.872;2022-08-19T10:49:53;57.97;;;30.10;;
4674;SDS011;2351;50.812;12.872;2022-08-19T10:52:50;65.43;;;28.87;;
4674;SDS011;2351;50.812;12.872;2022-08-19T10:55:22;59.93;;;26.07;;
4674;SDS011;2351;50.812;12.872;2022-08-19T10:58:13;70.07;;;28.30;;
4674;SDS011;2351;50.812;12.872;2022-08-19T11:00:50;61.00;;;30.07;;
4674;SDS011;2351;50.812;12.872;2022-08-19T11:03:23;65.83;;;30.77;;
4674;SDS011;2351;50.812;12.872;2022-08-19T11:05:58;66.53;;;30.57;;
4674;SDS011;2351;50.812;12.872;2022-08-19T11:08:32;62.63;;;28.90;;
4674;SDS011;2351;50.812;12.872;2022-08-19T11:11:06;69.33;;;28.33;;
4674;SDS011;2351;50.812;12.872;2022-08-19T11:13:39;71.40;;;29.77;;
4674;SDS011;2351;50.812;12.872;2022-08-19T11:16:16;63.70;;;28.70;;
4674;SDS011;2351;50.812;12.872;2022-08-19T11:18:50;69.93;;;32.17;;
4674;SDS011;2351;50.812;12.872;2022-08-19T11:21:24;77.23;;;32.10;;
4674;SDS011;2351;50.812;12.872;2022-08-19T11:24:00;60.43;;;30.27;;
4674;SDS011;2351;50.812;12.872;2022-08-19T11:26:36;66.33;;;33.20;;
4674;SDS011;2351;50.812;12.872;2022-08-19T11:29:10;77.87;;;33.27;;
4674;SDS011;2351;50.812;12.872;2022-08-19T11:31:44;69.33;;;34.93;;
4674;SDS011;2351;50.812;12.872;2022-08-19T11:34:17;85.37;;;34.20;;
4674;SDS011;2351;50.812;12.872;2022-08-19T11:36:50;72.30;;;32.73;;
4674;SDS011;2351;50.812;12.872;2022-08-19T11:39:24;64.03;;;31.67;;
4674;SDS011;2351;50.812;12.872;2022-08-19T11:41:59;68.53;;;31.10;;
4674;SDS011;2351;50.812;12.872;2022-08-19T11:44:31;63.40;;;30.50;;
4674;SDS011;2351;50.812;12.872;2022-08-19T11:47:03;71.93;;;30.30;;
4674;SDS011;2351;50.812;12.872;2022-08-19T11:49:36;59.07;;;28.67;;
4674;SDS011;2351;50.812;12.872;2022-08-19T11:52:08;59.20;;;27.33;;
4674;SDS011;2351;50.812;12.872;2022-08-19T11:54:42;62.00;;;31.10;;
4674;SDS011;2351;50.812;12.872;2022-08-19T11:57:13;73.53;;;33.00;;
4674;SDS011;2351;50.812;12.872;2022-08-19T11:59:50;72.93;;;32.07;;
4674;SDS011;2351;50.812;12.872;2022-08-19T12:02:22;72.73;;;32.37;;
4674;SDS011;2351;50.812;12.872;2022-08-19T12:04:54;71.47;;;29.10;;
4674;SDS011;2351;50.812;12.872;2022-08-19T12:07:26;65.77;;;30.77;;
4674;SDS011;2351;50.812;12.872;2022-08-19T12:09:59;70.67;;;33.00;;
4674;SDS011;2351;50.812;12.872;2022-08-19T12:12:30;72.70;;;30.67;;
4674;SDS011;2351;50.812;12.872;2022-08-19T12:15:02;68.03;;;28.83;;
4674;SDS011;2351;50.812;12.872;2022-08-19T12:17:34;83.47;;;34.07;;
4674;SDS011;2351;50.812;12.872;2022-08-19T12:20:06;80.20;;;34.73;;
4674;SDS011;2351;50.812;12.872;2022-08-19T12:22:39;95.87;;;35.67;;
4674;SDS011;2351;50.812;12.872;2022-08-19T12:25:12;87.63;;;36.43;;
4674;SDS011;2351;50.812;12.872;2022-08-19T12:27:44;91.67;;;37.07;;
4674;SDS011;2351;50.812;12.872;2022-08-19T12:30:16;81.67;;;37.07;;
4674;SDS011;2351;50.812;12.872;2022-08-19T12:32:48;72.83;;;34.17;;
4674;SDS011;2351;50.812;12.872;2022-08-19T12:35:21;85.03;;;36.03;;
4674;SDS011;2351;50.812;12.872;2022-08-19T12:37:52;86.63;;;36.33;;
4674;SDS011;2351;50.812;12.872;2022-08-19T12:40:26;83.47;;;36.17;;
4674;SDS011;2351;50.812;12.872;2022-08-19T12:42:57;87.97;;;42.10;;
4674;SDS011;2351;50.812;12.872;2022-08-19T12:45:29;102.63;;;40.73;;
4674;SDS011;2351;50.812;12.872;2022-08-19T12:48:01;100.23;;;41.20;;
4674;SDS011;2351;50.812;12.872;2022-08-19T12:50:33;85.83;;;39.73;;
4674;SDS011;2351;50.812;12.872;2022-08-19T12:53:04;96.20;;;39.50;;
4674;SDS011;2351;50.812;12.872;2022-08-19T12:55:37;93.60;;;36.80;;
4674;SDS011;2351;50.812;12.872;2022-08-19T12:58:09;90.07;;;38.57;;
4674;SDS011;2351;50.812;12.872;2022-08-19T13:00:42;96.60;;;36.37;;
4674;SDS011;2351;50.812;12.872;2022-08-19T13:03:14;86.50;;;35.73;;
4674;SDS011;2351;50.812;12.872;2022-08-19T13:05:46;104.60;;;38.77;;
4674;SDS011;2351;50.812;12.872;2022-08-19T13:08:17;81.20;;;35.83;;
4674;SDS011;2351;50.812;12.872;2022-08-19T13:10:50;91.30;;;37.20;;
4674;SDS011;2351;50.812;12.872;2022-08-19T13:13:23;89.87;;;38.43;;
4674;SDS011;2351;50.812;12.872;2022-08-19T13:15:59;84.43;;;37.77;;
4674;SDS011;2351;50.812;12.872;2022-08-19T13:18:32;84.53;;;37.73;;
4674;SDS011;2351;50.812;12.872;2022-08-19T13:21:04;86.23;;;36.60;;
4674;SDS011;2351;50.812;12.872;2022-08-19T13:23:37;82.27;;;36.83;;
4674;SDS011;2351;50.812;12.872;2022-08-19T13:26:11;84.27;;;35.37;;
4674;SDS011;2351;50.812;12.872;2022-08-19T13:28:43;81.00;;;35.00;;
4674;SDS011;2351;50.812;12.872;2022-08-19T13:31:34;96.97;;;36.93;;
4674;SDS011;2351;50.812;12.872;2022-08-19T13:34:29;84.70;;;34.93;;
4674;SDS011;2351;50.812;12.872;2022-08-19T13:37:03;81.40;;;39.03;;
4674;SDS011;2351;50.812;12.872;2022-08-19T13:39:35;85.70;;;35.10;;
4674;SDS011;2351;50.812;12.872;2022-08-19T13:42:08;90.37;;;38.80;;
4674;SDS011;2351;50.812;12.872;2022-08-19T13:44:40;93.63;;;37.83;;
4674;SDS011;2351;50.812;12.872;2022-08-19T13:47:12;78.43;;;33.50;;
4674;SDS011;2351;50.812;12.872;2022-08-19T13:49:44;81.83;;;35.27;;
4674;SDS011;2351;50.812;12.872;2022-08-19T13:52:16;86.73;;;35.00;;
4674;SDS011;2351;50.812;12.872;2022-08-19T13:54:47;90.07;;;37.10;;
4674;SDS011;2351;50.812;12.872;2022-08-19T13:57:20;81.40;;;36.87;;
4674;SDS011;2351;50.812;12.872;2022-08-19T13:59:52;93.50;;;35.30;;
4674;SDS011;2351;50.812;12.872;2022-08-19T14:02:23;72.70;;;33.47;;
4674;SDS011;2351;50.812;12.872;2022-08-19T14:04:56;74.70;;;32.90;;
4674;SDS011;2351;50.812;12.872;2022-08-19T14:10:22;87.43;;;34.13;;
4674;SDS011;2351;50.812;12.872;2022-08-19T14:12:55;80.40;;;32.80;;
4674;SDS011;2351;50.812;12.872;2022-08-19T14:15:29;70.20;;;34.33;;
4674;SDS011;2351;50.812;12.872;2022-08-19T14:18:01;81.67;;;35.47;;
4674;SDS011;2351;50.812;12.872;2022-08-19T14:20:33;76.43;;;33.47;;
4674;SDS011;2351;50.812;12.872;2022-08-19T14:23:05;81.87;;;35.40;;
4674;SDS011;2351;50.812;12.872;2022-08-19T14:25:37;72.20;;;31.17;;
4674;SDS011;2351;50.812;12.872;2022-08-19T14:28:11;65.20;;;30.30;;
4674;SDS011;2351;50.812;12.872;2022-08-19T14:30:42;73.20;;;30.60;;
4674;SDS011;2351;50.812;12.872;2022-08-19T14:33:14;65.67;;;31.27;;
4674;SDS011;2351;50.812;12.872;2022-08-19T14:35:46;67.93;;;32.03;;
4674;SDS011;2351;50.812;12.872;2022-08-19T14:38:18;75.47;;;31.73;;
4674;SDS011;2351;50.812;12.872;2022-08-19T14:40:50;64.10;;;31.00;;
4674;SDS011;2351;50.812;12.872;2022-08-19T14:43:24;58.97;;;29.27;;
4674;SDS011;2351;50.812;12.872;2022-08-19T14:45:55;64.33;;;30.33;;
4674;SDS011;2351;50.812;12.872;2022-08-19T14:48:27;59.67;;;29.60;;
4674;SDS011;2351;50.812;12.872;2022-08-19T14:50:59;57.60;;;30.03;;
4674;SDS011;2351;50.812;12.872;2022-08-19T14:53:30;64.63;;;31.17;;
4674;SDS011;2351;50.812;12.872;2022-08-19T14:56:07;71.93;;;32.30;;
4674;SDS011;2351;50.812;12.872;2022-08-19T14:58:41;70.90;;;30.77;;
4674;SDS011;2351;50.812;12.872;2022-08-19T15:01:13;61.93;;;28.53;;
4674;SDS011;2351;50.812;12.872;2022-08-19T15:03:45;61.13;;;29.63;;
4674;SDS011;2351;50.812;12.872;2022-08-19T15:06:17;59.00;;;28.80;;
4674;SDS011;2351;50.812;12.872;2022-08-19T15:08:49;65.33;;;30.10;;
4674;SDS011;2351;50.812;12.872;2022-08-19T15:11:22;60.07;;;29.43;;
4674;SDS011;2351;50.812;12.872;2022-08-19T15:13:59;62.47;;;29.80;;